Aviation Digital Data Service (ADDS)

Output produced by METARs form (0614 UTC 24 January 2019)
found at http://aviationweather.gov/metar/data/
 
KJAN 240520Z 2406/2506 32010KT P6SM OVC012 
     FM240800 32008KT P6SM BKN025 
     FM241000 33007KT P6SM SKC 
     FM250200 20003KT P6SM FEW250